Tiel, Netherlands
Current Conditions -  °F | °C
As of 10:55 PM on Saturday 25 Oct 2014 (Local Time) from EHVK Reporting Station
Few Clouds Few Clouds  
Wind Chill: 46°   Ceiling: Unl
Heat Index: 46°   Visibility: 6mi
Dew Point: 46°   Wind: 3mph
Humidity: 100%   Direction: 210°SSW
Pressure: 30.18"   Gusts: NA
Location:  51.89°N, 5.43°E
Report Text: EHVK 252055Z AUTO 21003KT 9999 FEW290 08/08 Q1022 BLU
Loading
Personal Weather Stations






























Interactive Weather Map
Tropical Storm Tracking
New forecast layout! Learn more

10-Day Weather Forecast

Advertisements
Track Severe Weather on mobile